Sj Angel — DSRB5 — position and weather

sailwx.info

Track history (hours):
 
Tides and Currents Weather Stations Pressure Air Temp Water Temp Dewpoint Dewpoint Depression Visibility Wind Speed Wind Dir Waves Ship Positions

Sj Angel

Last reported at 2018-Jan-22 02:17 UTC. Time now 2018-Jan-22 03:52 UTC.
Position N 34°12' E 132°37'.

Length 80 m; draft 4.9 m.

Type: Cargo ship. MMSI: 440051000.

Date/timePositionNaut miles runAvg speedWind from/ knotsBaromVisibWave heightAir tempDewpointWater temp
2018-Jan-22 02:17N 34°12' E 132°37'0 0.0
2018-Jan-22 01:38N 34°12' E 132°37'0 0.0
2018-Jan-21 22:20N 34°12' E 132°37'0 0.0
2018-Jan-21 21:59N 34°12' E 132°37'0 0.0
2018-Jan-21 19:17N 34°12' E 132°37'0 0.0
2018-Jan-21 18:56N 34°12' E 132°37'0 0.0
2018-Jan-21 18:29N 34°12' E 132°37'0 0.0
2018-Jan-21 17:59N 34°12' E 132°37'0 0.0
2018-Jan-21 17:29N 34°12' E 132°37'0 0.0
2018-Jan-21 16:08N 34°12' E 132°37'0 0.0
2018-Jan-21 15:47N 34°12' E 132°37'0 0.0
2018-Jan-21 15:29N 34°12' E 132°37'0 0.0
2018-Jan-21 14:14N 34°12' E 132°37'0 0.0
2018-Jan-21 13:53N 34°12' E 132°37'0 0.0
2018-Jan-21 12:41N 34°12' E 132°37'0 0.0
2018-Jan-21 12:20N 34°12' E 132°37'0 0.0
2018-Jan-21 11:02N 34°12' E 132°37'0 0.0
2018-Jan-21 10:59N 34°12' E 132°37'0 0.0
2018-Jan-21 03:32N 34°12' E 132°37'0 0.1
2018-Jan-21 03:26N 34°12' E 132°37'0 0.0
2018-Jan-20 23:38N 34°12' E 132°37'0 0.0
2018-Jan-20 23:29N 34°12' E 132°37'0 0.0
2018-Jan-20 22:59N 34°12' E 132°37'0 0.0
2018-Jan-20 21:53N 34°12' E 132°37'0 0.0
2018-Jan-20 21:29N 34°12' E 132°37'0 0.1
2018-Jan-20 20:35N 34°12' E 132°37'0 0.0
2018-Jan-20 20:29N 34°12' E 132°37'0 0.0
2018-Jan-20 19:59N 34°12' E 132°37'0 0.1
2018-Jan-20 19:29N 34°12' E 132°37'0 0.0
2018-Jan-20 18:59N 34°12' E 132°37'0 0.0
2018-Jan-20 18:29N 34°12' E 132°37'0 0.0
2018-Jan-20 17:56N 34°12' E 132°37'0 0.1
2018-Jan-20 17:14N 34°12' E 132°37'0 0.0
2018-Jan-20 16:53N 34°12' E 132°37'0 0.0
2018-Jan-20 16:29N 34°12' E 132°37'0 0.0
2018-Jan-20 15:56N 34°12' E 132°37'0 0.0
2018-Jan-20 15:23N 34°12' E 132°37'0 0.0
2018-Jan-20 14:56N 34°12' E 132°37'0 0.1
2018-Jan-20 14:29N 34°12' E 132°37'0 0.0
2018-Jan-20 13:47N 34°12' E 132°37'0 0.0
2018-Jan-20 13:23N 34°12' E 132°37'0 0.0
2018-Jan-20 12:59N 34°12' E 132°37'0 0.0
2018-Jan-20 11:14N 34°12' E 132°37'0 0.0
2018-Jan-20 10:59N 34°12' E 132°37'0 0.0
2018-Jan-20 09:17N 34°12' E 132°37'0 0.0
2018-Jan-20 03:50N 34°12' E 132°37'0 0.1
2018-Jan-20 01:58N 34°12' E 132°37'3 7.3
2018-Jan-20 01:30N 34°09' E 132°37'5 9.6
2018-Jan-20 01:00N 34°04' E 132°35'510.5
2018-Jan-20 00:30N 33°59' E 132°32'610.9
2018-Jan-19 23:56N 33°54' E 132°28'511.2
2018-Jan-19 23:28N 33°50' E 132°24'510.3
2018-Jan-19 22:58N 33°50' E 132°17'510.2
2018-Jan-19 22:30N 33°49' E 132°12'5 9.6
2018-Jan-19 22:00N 33°47' E 132°07'5 9.3
2018-Jan-19 21:30N 33°45' E 132°01'6 9.2
2018-Jan-19 20:53N 33°46' E 131°55'4 9.1
2018-Jan-19 20:30N 33°47' E 131°51'5 9.3
2018-Jan-19 20:00N 33°47' E 131°45'5 9.7
2018-Jan-19 19:30N 33°48' E 131°39'5 9.9
2018-Jan-19 19:00N 33°49' E 131°33'5 9.8
2018-Jan-19 18:30N 33°50' E 131°28'5 9.9
2018-Jan-19 18:00N 33°51' E 131°22'510.3
2018-Jan-19 17:30N 33°52' E 131°16'510.3
2018-Jan-19 17:00N 33°54' E 131°10'510.1
2018-Jan-19 16:30N 33°57' E 131°05'5 9.4
2018-Jan-19 16:00N 33°59' E 130°60'4 8.7
2018-Jan-19 15:30N 33°56' E 130°56'3 5.1
2018-Jan-19 15:00N 33°55' E 130°53'4 8.2
2018-Jan-19 14:30N 33°59' E 130°50'4 8.1
2018-Jan-19 14:00N 34°02' E 130°47'5 9.4
2018-Jan-19 13:30N 34°02' E 130°42'5 9.5
2018-Jan-19 13:00N 34°02' E 130°36'5 9.8
2018-Jan-19 12:30N 34°02' E 130°30'5 9.4
2018-Jan-19 12:00N 34°02' E 130°24'5 9.1
2018-Jan-19 11:30N 34°02' E 130°19'2 3.3
2018-Jan-19 11:00N 34°02' E 130°17'2 3.4
2018-Jan-19 10:30N 34°02' E 130°19'4 8.9
2018-Jan-19 10:00N 34°02' E 130°13'4 8.8
2018-Jan-19 09:30N 34°02' E 130°08'5 8.8
2018-Jan-19 08:59N 34°02' E 130°02'5 8.9
2018-Jan-19 08:28N 34°02' E 129°57'  
2018-Jan-12 14:55N 33°60' E 131°33'0 0.0
2018-Jan-12 14:28N 33°60' E 131°33'0 0.0
2018-Jan-12 13:52N 33°60' E 131°33'0 0.1
2018-Jan-12 13:28N 33°60' E 131°33'0 0.0
2018-Jan-12 12:58N 33°60' E 131°33'0 0.0
2018-Jan-12 12:28N 33°60' E 131°33'0 0.1
2018-Jan-12 11:58N 33°60' E 131°33'0 0.0
2018-Jan-12 11:28N 33°60' E 131°33'0 0.0
2018-Jan-12 10:58N 33°60' E 131°33'0 0.0
2018-Jan-12 10:28N 33°60' E 131°33'0 0.1
2018-Jan-12 09:58N 33°60' E 131°33'0 0.0
2018-Jan-12 09:22N 33°60' E 131°33'0 0.0
2018-Jan-12 08:52N 33°60' E 131°33'0 0.0
2018-Jan-12 08:22N 33°60' E 131°33'0 0.0
2018-Jan-12 07:52N 33°60' E 131°33'0 0.0
2018-Jan-12 07:28N 33°60' E 131°33'0 0.0
2018-Jan-12 06:58N 33°60' E 131°33'0 0.0
2018-Jan-12 06:22N 33°60' E 131°33'0 0.0
2018-Jan-12 05:58N 33°60' E 131°33'0 0.0
2018-Jan-12 05:28N 33°60' E 131°33'0 0.0
2018-Jan-12 04:58N 33°60' E 131°33'0 0.0
2018-Jan-12 04:22N 33°60' E 131°33'0 0.0
2018-Jan-12 03:58N 33°60' E 131°33'0 0.0
2018-Jan-12 03:28N 33°60' E 131°33'0 0.0
2018-Jan-12 02:58N 33°60' E 131°33'0 0.0
2018-Jan-12 02:28N 33°60' E 131°33'  
Track history (hours):
 
Tides and Currents Weather Stations Pressure Air Temp Water Temp Dewpoint Dewpoint Depression Visibility Wind Speed Wind Dir Waves Ship Positions

Sj Angel

Last reported at 2018-Jan-22 02:17 UTC. Time now 2018-Jan-22 03:52 UTC.
Position N 34°12' E 132°37'.

Length 80 m; draft 4.9 m.

Type: Cargo ship. MMSI: 440051000.

Date/timePositionNaut miles runAvg speedWind from/ knotsBaromVisibWave heightAir tempDewpointWater temp
2018-Jan-22 02:17N 34°12' E 132°37'0 0.0
2018-Jan-22 01:38N 34°12' E 132°37'0 0.0
2018-Jan-21 22:20N 34°12' E 132°37'0 0.0
2018-Jan-21 21:59N 34°12' E 132°37'0 0.0
2018-Jan-21 19:17N 34°12' E 132°37'0 0.0
2018-Jan-21 18:56N 34°12' E 132°37'0 0.0
2018-Jan-21 18:29N 34°12' E 132°37'0 0.0
2018-Jan-21 17:59N 34°12' E 132°37'0 0.0
2018-Jan-21 17:29N 34°12' E 132°37'0 0.0
2018-Jan-21 16:08N 34°12' E 132°37'0 0.0
2018-Jan-21 15:47N 34°12' E 132°37'0 0.0
2018-Jan-21 15:29N 34°12' E 132°37'0 0.0
2018-Jan-21 14:14N 34°12' E 132°37'0 0.0
2018-Jan-21 13:53N 34°12' E 132°37'0 0.0
2018-Jan-21 12:41N 34°12' E 132°37'0 0.0
2018-Jan-21 12:20N 34°12' E 132°37'0 0.0
2018-Jan-21 11:02N 34°12' E 132°37'0 0.0
2018-Jan-21 10:59N 34°12' E 132°37'0 0.0
2018-Jan-21 03:32N 34°12' E 132°37'0 0.1
2018-Jan-21 03:26N 34°12' E 132°37'0 0.0
2018-Jan-20 23:38N 34°12' E 132°37'0 0.0
2018-Jan-20 23:29N 34°12' E 132°37'0 0.0
2018-Jan-20 22:59N 34°12' E 132°37'0 0.0
2018-Jan-20 21:53N 34°12' E 132°37'0 0.0
2018-Jan-20 21:29N 34°12' E 132°37'0 0.1
2018-Jan-20 20:35N 34°12' E 132°37'0 0.0
2018-Jan-20 20:29N 34°12' E 132°37'0 0.0
2018-Jan-20 19:59N 34°12' E 132°37'0 0.1
2018-Jan-20 19:29N 34°12' E 132°37'0 0.0
2018-Jan-20 18:59N 34°12' E 132°37'0 0.0
2018-Jan-20 18:29N 34°12' E 132°37'0 0.0
2018-Jan-20 17:56N 34°12' E 132°37'0 0.1
2018-Jan-20 17:14N 34°12' E 132°37'0 0.0
2018-Jan-20 16:53N 34°12' E 132°37'0 0.0
2018-Jan-20 16:29N 34°12' E 132°37'0 0.0
2018-Jan-20 15:56N 34°12' E 132°37'0 0.0
2018-Jan-20 15:23N 34°12' E 132°37'0 0.0
2018-Jan-20 14:56N 34°12' E 132°37'0 0.1
2018-Jan-20 14:29N 34°12' E 132°37'0 0.0
2018-Jan-20 13:47N 34°12' E 132°37'0 0.0
2018-Jan-20 13:23N 34°12' E 132°37'0 0.0
2018-Jan-20 12:59N 34°12' E 132°37'0 0.0
2018-Jan-20 11:14N 34°12' E 132°37'0 0.0
2018-Jan-20 10:59N 34°12' E 132°37'0 0.0
2018-Jan-20 09:17N 34°12' E 132°37'0 0.0
2018-Jan-20 03:50N 34°12' E 132°37'0 0.1
2018-Jan-20 01:58N 34°12' E 132°37'3 7.3
2018-Jan-20 01:30N 34°09' E 132°37'5 9.6
2018-Jan-20 01:00N 34°04' E 132°35'510.5
2018-Jan-20 00:30N 33°59' E 132°32'610.9
2018-Jan-19 23:56N 33°54' E 132°28'511.2
2018-Jan-19 23:28N 33°50' E 132°24'510.3
2018-Jan-19 22:58N 33°50' E 132°17'510.2
2018-Jan-19 22:30N 33°49' E 132°12'5 9.6
2018-Jan-19 22:00N 33°47' E 132°07'5 9.3
2018-Jan-19 21:30N 33°45' E 132°01'6 9.2
2018-Jan-19 20:53N 33°46' E 131°55'4 9.1
2018-Jan-19 20:30N 33°47' E 131°51'5 9.3
2018-Jan-19 20:00N 33°47' E 131°45'5 9.7
2018-Jan-19 19:30N 33°48' E 131°39'5 9.9
2018-Jan-19 19:00N 33°49' E 131°33'5 9.8
2018-Jan-19 18:30N 33°50' E 131°28'5 9.9
2018-Jan-19 18:00N 33°51' E 131°22'510.3
2018-Jan-19 17:30N 33°52' E 131°16'510.3
2018-Jan-19 17:00N 33°54' E 131°10'510.1
2018-Jan-19 16:30N 33°57' E 131°05'5 9.4
2018-Jan-19 16:00N 33°59' E 130°60'4 8.7
2018-Jan-19 15:30N 33°56' E 130°56'3 5.1
2018-Jan-19 15:00N 33°55' E 130°53'4 8.2
2018-Jan-19 14:30N 33°59' E 130°50'4 8.1
2018-Jan-19 14:00N 34°02' E 130°47'5 9.4
2018-Jan-19 13:30N 34°02' E 130°42'5 9.5
2018-Jan-19 13:00N 34°02' E 130°36'5 9.8
2018-Jan-19 12:30N 34°02' E 130°30'5 9.4
2018-Jan-19 12:00N 34°02' E 130°24'5 9.1
2018-Jan-19 11:30N 34°02' E 130°19'2 3.3
2018-Jan-19 11:00N 34°02' E 130°17'2 3.4
2018-Jan-19 10:30N 34°02' E 130°19'4 8.9
2018-Jan-19 10:00N 34°02' E 130°13'4 8.8
2018-Jan-19 09:30N 34°02' E 130°08'5 8.8
2018-Jan-19 08:59N 34°02' E 130°02'5 8.9
2018-Jan-19 08:28N 34°02' E 129°57'  
2018-Jan-12 14:55N 33°60' E 131°33'0 0.0
2018-Jan-12 14:28N 33°60' E 131°33'0 0.0
2018-Jan-12 13:52N 33°60' E 131°33'0 0.1
2018-Jan-12 13:28N 33°60' E 131°33'0 0.0
2018-Jan-12 12:58N 33°60' E 131°33'0 0.0
2018-Jan-12 12:28N 33°60' E 131°33'0 0.1
2018-Jan-12 11:58N 33°60' E 131°33'0 0.0
2018-Jan-12 11:28N 33°60' E 131°33'0 0.0
2018-Jan-12 10:58N 33°60' E 131°33'0 0.0
2018-Jan-12 10:28N 33°60' E 131°33'0 0.1
2018-Jan-12 09:58N 33°60' E 131°33'0 0.0
2018-Jan-12 09:22N 33°60' E 131°33'0 0.0
2018-Jan-12 08:52N 33°60' E 131°33'0 0.0
2018-Jan-12 08:22N 33°60' E 131°33'0 0.0
2018-Jan-12 07:52N 33°60' E 131°33'0 0.0
2018-Jan-12 07:28N 33°60' E 131°33'0 0.0
2018-Jan-12 06:58N 33°60' E 131°33'0 0.0
2018-Jan-12 06:22N 33°60' E 131°33'0 0.0
2018-Jan-12 05:58N 33°60' E 131°33'0 0.0
2018-Jan-12 05:28N 33°60' E 131°33'0 0.0
2018-Jan-12 04:58N 33°60' E 131°33'0 0.0
2018-Jan-12 04:22N 33°60' E 131°33'0 0.0
2018-Jan-12 03:58N 33°60' E 131°33'0 0.0
2018-Jan-12 03:28N 33°60' E 131°33'0 0.0
2018-Jan-12 02:58N 33°60' E 131°33'0 0.0
2018-Jan-12 02:28N 33°60' E 131°33'  

Dump ship's entire track history